TimeCDT,TemperatureF,Dew PointF,Humidity,Sea Level PressureIn,VisibilityMPH,Wind Direction,Wind SpeedMPH,Gust SpeedMPH,PrecipitationIn,Events,Conditions,WindDirDegrees,DateUTC
12:51 AM,81.0,66.9,62,29.91,10.0,SE,6.9,-,N/A,,Clear,140,2013-09-15 05:51:00
1:51 AM,79.0,68.0,69,29.91,10.0,SSE,5.8,-,N/A,,Clear,150,2013-09-15 06:51:00
2:51 AM,78.1,69.1,74,29.91,10.0,Calm,Calm,-,N/A,,Clear,0,2013-09-15 07:51:00
3:51 AM,73.9,66.9,79,29.89,10.0,North,3.5,-,N/A,,Clear,10,2013-09-15 08:51:00
4:51 AM,72.0,66.0,81,29.90,10.0,North,3.5,-,N/A,,Clear,10,2013-09-15 09:51:00
5:51 AM,72.0,66.0,81,29.91,10.0,NNE,5.8,-,N/A,,Clear,30,2013-09-15 10:51:00
6:51 AM,72.0,66.9,84,29.93,10.0,NE,4.6,-,N/A,,Clear,50,2013-09-15 11:51:00
7:51 AM,73.9,69.1,85,29.94,10.0,NE,4.6,-,N/A,,Clear,50,2013-09-15 12:51:00
8:51 AM,78.1,70.0,76,29.96,10.0,ENE,8.1,-,N/A,,Clear,70,2013-09-15 13:51:00
9:51 AM,81.0,71.1,72,29.97,10.0,ENE,9.2,-,N/A,,Mostly Cloudy,60,2013-09-15 14:51:00
10:51 AM,84.9,71.1,63,29.99,10.0,ESE,8.1,-,N/A,,Overcast,110,2013-09-15 15:51:00
11:12 AM,87.8,69.8,55,30.04,10.0,ESE,11.5,-,N/A,,Overcast,120,2013-09-15 16:12:00
11:51 AM,87.1,70.0,57,29.99,10.0,East,11.5,-,N/A,,Partly Cloudy,100,2013-09-15 16:51:00
12:51 PM,91.0,70.0,50,29.97,10.0,East,13.8,-,N/A,,Mostly Cloudy,100,2013-09-15 17:51:00
1:51 PM,91.0,66.9,45,29.94,10.0,ESE,13.8,-,N/A,,Partly Cloudy,110,2013-09-15 18:51:00
2:51 PM,93.9,66.0,40,29.92,10.0,ESE,16.1,21.9,N/A,,Clear,120,2013-09-15 19:51:00
3:51 PM,93.0,66.0,41,29.91,10.0,ESE,12.7,19.6,N/A,,Scattered Clouds,110,2013-09-15 20:51:00
4:51 PM,89.1,69.1,52,29.91,10.0,NE,10.4,-,N/A,,Clear,40,2013-09-15 21:51:00
5:51 PM,90.0,66.9,46,29.91,10.0,East,11.5,-,N/A,,Clear,90,2013-09-15 22:51:00
6:51 PM,89.1,66.9,48,29.92,10.0,ESE,9.2,-,N/A,,Clear,110,2013-09-15 23:51:00
7:51 PM,86.0,68.0,55,29.94,10.0,South,5.8,-,N/A,,Clear,180,2013-09-16 00:51:00
8:51 PM,82.9,68.0,60,29.96,10.0,Calm,Calm,-,N/A,,Clear,0,2013-09-16 01:51:00
9:51 PM,84.0,68.0,58,29.97,10.0,East,3.5,-,N/A,,Partly Cloudy,100,2013-09-16 02:51:00
10:51 PM,82.9,66.9,58,29.98,10.0,SE,5.8,-,N/A,,Clear,140,2013-09-16 03:51:00
11:51 PM,79.0,68.0,69,29.99,10.0,Calm,Calm,-,N/A,,Clear,0,2013-09-16 04:51:00